sensor_id;sensor_type;location;lat;lon;timestamp;pressure;altitude;pressure_sealevel;temperature;humidity
10638;BME280;47007;49.252;8.904;2022-08-19T00:01:58;99268.81;;;21.47;100.00
10638;BME280;47007;49.252;8.904;2022-08-19T00:04:29;99330.63;;;21.84;100.00
10638;BME280;47007;49.252;8.904;2022-08-19T00:06:57;99307.97;;;21.70;100.00
10638;BME280;47007;49.252;8.904;2022-08-19T00:09:25;99321.47;;;21.85;100.00
10638;BME280;47007;49.252;8.904;2022-08-19T00:11:53;99310.38;;;21.81;100.00
10638;BME280;47007;49.252;8.904;2022-08-19T00:14:22;99324.97;;;21.91;100.00
10638;BME280;47007;49.252;8.904;2022-08-19T00:16:51;99302.84;;;21.63;100.00
10638;BME280;47007;49.252;8.904;2022-08-19T00:19:40;99329.78;;;21.68;100.00
10638;BME280;47007;49.252;8.904;2022-08-19T00:22:07;99308.75;;;21.60;100.00
10638;BME280;47007;49.252;8.904;2022-08-19T00:24:35;99305.53;;;21.63;100.00
10638;BME280;47007;49.252;8.904;2022-08-19T00:27:04;99327.13;;;21.83;100.00
10638;BME280;47007;49.252;8.904;2022-08-19T00:29:51;99308.78;;;21.75;100.00
10638;BME280;47007;49.252;8.904;2022-08-19T00:32:18;99308.78;;;21.80;100.00
10638;BME280;47007;49.252;8.904;2022-08-19T00:34:46;99319.03;;;21.83;100.00
10638;BME280;47007;49.252;8.904;2022-08-19T00:37:13;99272.63;;;21.51;100.00
10638;BME280;47007;49.252;8.904;2022-08-19T00:39:39;99318.47;;;21.71;100.00
10638;BME280;47007;49.252;8.904;2022-08-19T00:42:06;99321.72;;;21.83;100.00
10638;BME280;47007;49.252;8.904;2022-08-19T00:44:33;99344.41;;;21.98;100.00
10638;BME280;47007;49.252;8.904;2022-08-19T00:46:59;99318.22;;;21.93;100.00
10638;BME280;47007;49.252;8.904;2022-08-19T00:49:35;99339.84;;;22.13;100.00
10638;BME280;47007;49.252;8.904;2022-08-19T00:54:33;99295.28;;;21.85;100.00
10638;BME280;47007;49.252;8.904;2022-08-19T00:57:06;99286.13;;;21.71;100.00
10638;BME280;47007;49.252;8.904;2022-08-19T00:59:35;99312.28;;;21.81;100.00
10638;BME280;47007;49.252;8.904;2022-08-19T01:02:23;99297.97;;;21.70;100.00
10638;BME280;47007;49.252;8.904;2022-08-19T01:04:50;99289.91;;;21.75;100.00
10638;BME280;47007;49.252;8.904;2022-08-19T01:07:17;99301.22;;;21.77;100.00
10638;BME280;47007;49.252;8.904;2022-08-19T01:09:46;99234.28;;;21.39;100.00
10638;BME280;47007;49.252;8.904;2022-08-19T01:12:13;99304.47;;;21.84;100.00
10638;BME280;47007;49.252;8.904;2022-08-19T01:14:40;99313.91;;;21.82;100.00
10638;BME280;47007;49.252;8.904;2022-08-19T01:17:09;99317.38;;;21.67;100.00
10638;BME280;47007;49.252;8.904;2022-08-19T01:19:40;99288.22;;;21.39;100.00
10638;BME280;47007;49.252;8.904;2022-08-19T01:24:54;99307.63;;;21.41;100.00
10638;BME280;47007;49.252;8.904;2022-08-19T01:27:22;99307.63;;;21.36;100.00
10638;BME280;47007;49.252;8.904;2022-08-19T01:29:50;99303.88;;;21.37;100.00
10638;BME280;47007;49.252;8.904;2022-08-19T01:32:17;99315.47;;;21.37;100.00
10638;BME280;47007;49.252;8.904;2022-08-19T01:35:00;99290.63;;;21.30;100.00
10638;BME280;47007;49.252;8.904;2022-08-19T01:37:28;99324.38;;;21.53;100.00
10638;BME280;47007;49.252;8.904;2022-08-19T01:39:55;99324.41;;;21.58;100.00
10638;BME280;47007;49.252;8.904;2022-08-19T01:42:22;99325.75;;;21.71;100.00
10638;BME280;47007;49.252;8.904;2022-08-19T01:44:56;99294.72;;;21.58;100.00
10638;BME280;47007;49.252;8.904;2022-08-19T01:47:23;99263.41;;;21.32;100.00
10638;BME280;47007;49.252;8.904;2022-08-19T01:49:50;99334.94;;;21.80;100.00
10638;BME280;47007;49.252;8.904;2022-08-19T01:52:17;99308.25;;;21.73;100.00
10638;BME280;47007;49.252;8.904;2022-08-19T01:54:44;99336.31;;;21.88;100.00
10638;BME280;47007;49.252;8.904;2022-08-19T01:57:12;99336.56;;;21.81;100.00
10638;BME280;47007;49.252;8.904;2022-08-19T01:59:42;99324.69;;;21.77;100.00
10638;BME280;47007;49.252;8.904;2022-08-19T02:02:09;99334.44;;;21.88;100.00
10638;BME280;47007;49.252;8.904;2022-08-19T02:04:37;99327.13;;;21.88;100.00
10638;BME280;47007;49.252;8.904;2022-08-19T02:07:07;99312.00;;;21.82;100.00
10638;BME280;47007;49.252;8.904;2022-08-19T02:09:35;99326.03;;;21.79;100.00
10638;BME280;47007;49.252;8.904;2022-08-19T02:12:02;99312.00;;;21.77;100.00
10638;BME280;47007;49.252;8.904;2022-08-19T02:14:29;99275.59;;;21.60;100.00
10638;BME280;47007;49.252;8.904;2022-08-19T02:16:56;99303.66;;;21.74;100.00
10638;BME280;47007;49.252;8.904;2022-08-19T02:19:23;99321.69;;;21.68;100.00
10638;BME280;47007;49.252;8.904;2022-08-19T02:21:49;99323.03;;;21.66;100.00
10638;BME280;47007;49.252;8.904;2022-08-19T02:24:16;99323.84;;;21.66;100.00
10638;BME280;47007;49.252;8.904;2022-08-19T02:26:43;99334.94;;;21.80;100.00
10638;BME280;47007;49.252;8.904;2022-08-19T02:29:10;99321.19;;;21.92;100.00
10638;BME280;47007;49.252;8.904;2022-08-19T02:31:36;99301.22;;;21.77;100.00
10638;BME280;47007;49.252;8.904;2022-08-19T02:34:03;99305.53;;;21.78;100.00
10638;BME280;47007;49.252;8.904;2022-08-19T02:36:30;99329.28;;;21.92;100.00
10638;BME280;47007;49.252;8.904;2022-08-19T02:38:57;99330.63;;;21.94;100.00
10638;BME280;47007;49.252;8.904;2022-08-19T02:41:30;99326.84;;;21.90;100.00
10638;BME280;47007;49.252;8.904;2022-08-19T02:43:59;99327.13;;;21.94;100.00
10638;BME280;47007;49.252;8.904;2022-08-19T02:46:47;99331.44;;;21.95;100.00
10638;BME280;47007;49.252;8.904;2022-08-19T02:49:17;99305.53;;;21.83;100.00
10638;BME280;47007;49.252;8.904;2022-08-19T02:51:46;99313.91;;;21.87;100.00
10638;BME280;47007;49.252;8.904;2022-08-19T02:54:13;99304.47;;;21.84;100.00
10638;BME280;47007;49.252;8.904;2022-08-19T02:56:42;99317.69;;;21.76;100.00
10638;BME280;47007;49.252;8.904;2022-08-19T02:59:10;99277.44;;;21.34;100.00
10638;BME280;47007;49.252;8.904;2022-08-19T03:01:39;99316.25;;;21.43;100.00
10638;BME280;47007;49.252;8.904;2022-08-19T03:04:09;99311.63;;;21.28;100.00
10638;BME280;47007;49.252;8.904;2022-08-19T03:06:40;99292.72;;;21.18;100.00
10638;BME280;47007;49.252;8.904;2022-08-19T03:09:08;99296.28;;;21.24;100.00
10638;BME280;47007;49.252;8.904;2022-08-19T03:11:36;99327.06;;;21.48;100.00
10638;BME280;47007;49.252;8.904;2022-08-19T03:14:05;99330.59;;;21.48;100.00
10638;BME280;47007;49.252;8.904;2022-08-19T03:16:35;99325.44;;;21.47;100.00
10638;BME280;47007;49.252;8.904;2022-08-19T03:19:02;99330.28;;;21.45;100.00
10638;BME280;47007;49.252;8.904;2022-08-19T03:21:31;99332.69;;;21.41;100.00
10638;BME280;47007;49.252;8.904;2022-08-19T03:24:01;99338.09;;;21.41;100.00
10638;BME280;47007;49.252;8.904;2022-08-19T03:26:29;99336.22;;;21.42;100.00
10638;BME280;47007;49.252;8.904;2022-08-19T03:28:56;99255.44;;;20.90;100.00
10638;BME280;47007;49.252;8.904;2022-08-19T03:31:26;99333.78;;;21.35;100.00
10638;BME280;47007;49.252;8.904;2022-08-19T03:34:16;99272.44;;;20.95;100.00
10638;BME280;47007;49.252;8.904;2022-08-19T03:36:45;99312.44;;;21.24;100.00
10638;BME280;47007;49.252;8.904;2022-08-19T03:39:12;99325.41;;;21.32;100.00
10638;BME280;47007;49.252;8.904;2022-08-19T03:41:41;99324.31;;;21.23;100.00
10638;BME280;47007;49.252;8.904;2022-08-19T03:44:16;99293.97;;;20.90;100.00
10638;BME280;47007;49.252;8.904;2022-08-19T03:46:53;99347.94;;;21.15;100.00
10638;BME280;47007;49.252;8.904;2022-08-19T03:49:23;99316.91;;;20.98;100.00
10638;BME280;47007;49.252;8.904;2022-08-19T03:51:55;99355.28;;;21.20;100.00
10638;BME280;47007;49.252;8.904;2022-08-19T03:54:24;99333.47;;;21.27;100.00
10638;BME280;47007;49.252;8.904;2022-08-19T03:56:52;99341.63;;;21.47;100.00
10638;BME280;47007;49.252;8.904;2022-08-19T03:59:31;99348.13;;;21.51;100.00
10638;BME280;47007;49.252;8.904;2022-08-19T04:02:02;99323.25;;;21.39;100.00
10638;BME280;47007;49.252;8.904;2022-08-19T04:04:29;99254.94;;;20.98;100.00
10638;BME280;47007;49.252;8.904;2022-08-19T04:06:57;99315.69;;;21.31;100.00
10638;BME280;47007;49.252;8.904;2022-08-19T04:09:25;99328.63;;;21.29;100.00
10638;BME280;47007;49.252;8.904;2022-08-19T04:11:54;99335.84;;;21.13;100.00
10638;BME280;47007;49.252;8.904;2022-08-19T04:14:24;99342.00;;;21.08;100.00
10638;BME280;47007;49.252;8.904;2022-08-19T04:16:51;99338.78;;;21.11;100.00
10638;BME280;47007;49.252;8.904;2022-08-19T04:19:19;99346.59;;;21.08;100.00
10638;BME280;47007;49.252;8.904;2022-08-19T04:21:48;99360.88;;;21.08;100.00
10638;BME280;47007;49.252;8.904;2022-08-19T04:24:16;99362.22;;;21.16;100.00
10638;BME280;47007;49.252;8.904;2022-08-19T04:26:43;99341.00;;;21.20;100.00
10638;BME280;47007;49.252;8.904;2022-08-19T04:29:13;99345.00;;;21.12;100.00
10638;BME280;47007;49.252;8.904;2022-08-19T04:31:42;99358.47;;;21.17;100.00
10638;BME280;47007;49.252;8.904;2022-08-19T04:34:13;99354.16;;;21.16;100.00
10638;BME280;47007;49.252;8.904;2022-08-19T04:36:41;99358.44;;;21.07;100.00
10638;BME280;47007;49.252;8.904;2022-08-19T04:39:14;99363.78;;;20.97;100.00
10638;BME280;47007;49.252;8.904;2022-08-19T04:41:42;99348.34;;;20.77;100.00
10638;BME280;47007;49.252;8.904;2022-08-19T04:44:27;99337.25;;;20.73;100.00
10638;BME280;47007;49.252;8.904;2022-08-19T04:46:59;99351.63;;;20.94;100.00
10638;BME280;47007;49.252;8.904;2022-08-19T04:49:27;99331.91;;;20.84;100.00
10638;BME280;47007;49.252;8.904;2022-08-19T04:51:54;99351.66;;;20.99;100.00
10638;BME280;47007;49.252;8.904;2022-08-19T04:54:23;99355.19;;;21.00;100.00
10638;BME280;47007;49.252;8.904;2022-08-19T04:57:06;99349.72;;;20.85;100.00
10638;BME280;47007;49.252;8.904;2022-08-19T04:59:36;99345.84;;;20.70;100.00
10638;BME280;47007;49.252;8.904;2022-08-19T05:02:04;99352.59;;;20.73;100.00
10638;BME280;47007;49.252;8.904;2022-08-19T05:04:30;99363.44;;;20.83;100.00
10638;BME280;47007;49.252;8.904;2022-08-19T05:06:59;99357.53;;;20.86;100.00
10638;BME280;47007;49.252;8.904;2022-08-19T05:09:28;99354.78;;;20.81;100.00
10638;BME280;47007;49.252;8.904;2022-08-19T05:12:15;99351.03;;;20.82;100.00
10638;BME280;47007;49.252;8.904;2022-08-19T05:14:43;99369.38;;;20.90;100.00
10638;BME280;47007;49.252;8.904;2022-08-19T05:17:13;99353.19;;;20.80;100.00
10638;BME280;47007;49.252;8.904;2022-08-19T05:20:00;99341.53;;;20.64;100.00
10638;BME280;47007;49.252;8.904;2022-08-19T05:22:46;99376.34;;;20.76;100.00
10638;BME280;47007;49.252;8.904;2022-08-19T05:25:18;99384.94;;;20.78;100.00
10638;BME280;47007;49.252;8.904;2022-08-19T05:27:46;99370.94;;;20.76;100.00
10638;BME280;47007;49.252;8.904;2022-08-19T05:30:14;99381.22;;;20.84;100.00
10638;BME280;47007;49.252;8.904;2022-08-19T05:32:41;99376.66;;;20.85;100.00
10638;BME280;47007;49.252;8.904;2022-08-19T05:35:08;99380.72;;;20.87;100.00
10638;BME280;47007;49.252;8.904;2022-08-19T05:37:36;99389.91;;;20.96;100.00
10638;BME280;47007;49.252;8.904;2022-08-19T05:40:04;99401.03;;;21.15;100.00
10638;BME280;47007;49.252;8.904;2022-08-19T05:42:31;99408.69;;;21.23;100.00
10638;BME280;47007;49.252;8.904;2022-08-19T05:44:58;99408.69;;;21.28;100.00
10638;BME280;47007;49.252;8.904;2022-08-19T05:47:24;99410.34;;;21.34;100.00
10638;BME280;47007;49.252;8.904;2022-08-19T05:49:51;99410.63;;;21.43;100.00
10638;BME280;47007;49.252;8.904;2022-08-19T05:52:19;99414.44;;;21.52;100.00
10638;BME280;47007;49.252;8.904;2022-08-19T05:54:52;99420.69;;;21.63;100.00
10638;BME280;47007;49.252;8.904;2022-08-19T05:57:23;99406.09;;;21.54;100.00
10638;BME280;47007;49.252;8.904;2022-08-19T05:59:50;99400.94;;;21.52;100.00
10638;BME280;47007;49.252;8.904;2022-08-19T06:02:23;99437.13;;;21.66;100.00
10638;BME280;47007;49.252;8.904;2022-08-19T06:04:51;99432.28;;;21.58;100.00
10638;BME280;47007;49.252;8.904;2022-08-19T06:07:18;99420.38;;;21.49;100.00
10638;BME280;47007;49.252;8.904;2022-08-19T06:09:45;99427.13;;;21.57;100.00
10638;BME280;47007;49.252;8.904;2022-08-19T06:12:34;99450.66;;;21.71;100.00
10638;BME280;47007;49.252;8.904;2022-08-19T06:15:06;99433.38;;;21.62;100.00
10638;BME280;47007;49.252;8.904;2022-08-19T06:17:33;99460.66;;;21.81;100.00
10638;BME280;47007;49.252;8.904;2022-08-19T06:20:04;99449.59;;;21.77;100.00
10638;BME280;47007;49.252;8.904;2022-08-19T06:22:31;99468.19;;;21.79;100.00
10638;BME280;47007;49.252;8.904;2022-08-19T06:24:57;99461.69;;;21.65;100.00
10638;BME280;47007;49.252;8.904;2022-08-19T06:27:24;99457.06;;;21.55;100.00
10638;BME280;47007;49.252;8.904;2022-08-19T06:29:51;99418.72;;;21.38;100.00
10638;BME280;47007;49.252;8.904;2022-08-19T06:32:18;99425.75;;;21.44;100.00
10638;BME280;47007;49.252;8.904;2022-08-19T06:34:47;99451.69;;;21.65;100.00
10638;BME280;47007;49.252;8.904;2022-08-19T06:37:14;99450.69;;;21.81;100.00
10638;BME280;47007;49.252;8.904;2022-08-19T06:39:43;99429.66;;;21.94;100.00
10638;BME280;47007;49.252;8.904;2022-08-19T06:42:11;99439.19;;;22.11;100.00
10638;BME280;47007;49.252;8.904;2022-08-19T06:44:41;99449.19;;;22.11;100.00
10638;BME280;47007;49.252;8.904;2022-08-19T06:47:20;99432.88;;;21.91;100.00
10638;BME280;47007;49.252;8.904;2022-08-19T06:49:57;99446.13;;;21.92;100.00
10638;BME280;47007;49.252;8.904;2022-08-19T06:52:32;99442.34;;;21.88;100.00
10638;BME280;47007;49.252;8.904;2022-08-19T06:55:03;99440.19;;;21.95;100.00
10638;BME280;47007;49.252;8.904;2022-08-19T06:57:32;99432.34;;;21.88;100.00
10638;BME280;47007;49.252;8.904;2022-08-19T06:59:59;99435.13;;;21.99;100.00
10638;BME280;47007;49.252;8.904;2022-08-19T07:02:26;99427.84;;;21.99;100.00
10638;BME280;47007;49.252;8.904;2022-08-19T07:04:53;99363.78;;;21.69;100.00
10638;BME280;47007;49.252;8.904;2022-08-19T07:07:20;99427.81;;;22.04;100.00
10638;BME280;47007;49.252;8.904;2022-08-19T07:09:50;99432.97;;;22.06;100.00
10638;BME280;47007;49.252;8.904;2022-08-19T07:12:29;99435.41;;;22.12;100.00
10638;BME280;47007;49.252;8.904;2022-08-19T07:14:58;99424.84;;;22.01;100.00
10638;BME280;47007;49.252;8.904;2022-08-19T07:17:25;99431.66;;;22.24;100.00
10638;BME280;47007;49.252;8.904;2022-08-19T07:19:52;99438.09;;;22.28;100.00
10638;BME280;47007;49.252;8.904;2022-08-19T07:22:20;99415.97;;;22.00;100.00
10638;BME280;47007;49.252;8.904;2022-08-19T07:24:51;99448.09;;;22.17;100.00
10638;BME280;47007;49.252;8.904;2022-08-19T07:27:19;99441.09;;;22.21;100.00
10638;BME280;47007;49.252;8.904;2022-08-19T07:29:52;99416.22;;;22.14;100.00
10638;BME280;47007;49.252;8.904;2022-08-19T07:32:26;99430.84;;;22.23;100.00
10638;BME280;47007;49.252;8.904;2022-08-19T07:34:54;99448.38;;;22.51;100.00
10638;BME280;47007;49.252;8.904;2022-08-19T07:37:23;99458.38;;;22.55;100.00
10638;BME280;47007;49.252;8.904;2022-08-19T07:39:58;99445.97;;;22.60;100.00
10638;BME280;47007;49.252;8.904;2022-08-19T07:42:25;99450.56;;;22.74;100.00
10638;BME280;47007;49.252;8.904;2022-08-19T07:44:51;99445.16;;;22.74;100.00
10638;BME280;47007;49.252;8.904;2022-08-19T07:47:18;99458.38;;;22.96;100.00
10638;BME280;47007;49.252;8.904;2022-08-19T07:50:08;99463.53;;;22.98;100.00
10638;BME280;47007;49.252;8.904;2022-08-19T07:52:36;99449.97;;;23.08;100.00
10638;BME280;47007;49.252;8.904;2022-08-19T07:55:07;99461.81;;;23.27;100.00
10638;BME280;47007;49.252;8.904;2022-08-19T07:57:54;99452.88;;;23.26;100.00
10638;BME280;47007;49.252;8.904;2022-08-19T08:00:21;99438.81;;;23.29;100.00
10638;BME280;47007;49.252;8.904;2022-08-19T08:02:51;99452.50;;;23.63;100.00
10638;BME280;47007;49.252;8.904;2022-08-19T08:05:22;99439.16;;;23.82;100.00
10638;BME280;47007;49.252;8.904;2022-08-19T08:08:11;99453.38;;;24.08;100.00
10638;BME280;47007;49.252;8.904;2022-08-19T08:10:58;99458.22;;;24.50;100.00
10638;BME280;47007;49.252;8.904;2022-08-19T08:13:25;99406.94;;;24.30;100.00
10638;BME280;47007;49.252;8.904;2022-08-19T08:15:53;99441.03;;;24.31;100.00
10638;BME280;47007;49.252;8.904;2022-08-19T08:18:22;99458.22;;;24.50;100.00
10638;BME280;47007;49.252;8.904;2022-08-19T08:20:56;99461.16;;;24.88;100.00
10638;BME280;47007;49.252;8.904;2022-08-19T08:23:24;99467.91;;;24.90;100.00
10638;BME280;47007;49.252;8.904;2022-08-19T08:25:55;99462.09;;;24.73;100.00
10638;BME280;47007;49.252;8.904;2022-08-19T08:28:23;99442.25;;;24.49;100.00
10638;BME280;47007;49.252;8.904;2022-08-19T08:30:54;99461.53;;;24.42;100.00
10638;BME280;47007;49.252;8.904;2022-08-19T08:33:24;99480.50;;;24.47;100.00
10638;BME280;47007;49.252;8.904;2022-08-19T08:35:58;99473.19;;;24.43;100.00
10638;BME280;47007;49.252;8.904;2022-08-19T08:38:25;99482.84;;;24.59;100.00
10638;BME280;47007;49.252;8.904;2022-08-19T08:40:59;99486.25;;;24.36;100.00
10638;BME280;47007;49.252;8.904;2022-08-19T08:43:35;99490.91;;;24.30;100.00
10638;BME280;47007;49.252;8.904;2022-08-19T08:46:10;99487.94;;;24.21;100.00
10638;BME280;47007;49.252;8.904;2022-08-19T08:48:52;99485.38;;;23.96;100.00
10638;BME280;47007;49.252;8.904;2022-08-19T08:51:25;99492.13;;;23.98;100.00
10638;BME280;47007;49.252;8.904;2022-08-19T08:54:02;99475.31;;;24.07;100.00
10638;BME280;47007;49.252;8.904;2022-08-19T08:56:31;99465.22;;;24.12;100.00
10638;BME280;47007;49.252;8.904;2022-08-19T08:59:21;99476.25;;;24.31;100.00
10638;BME280;47007;49.252;8.904;2022-08-19T09:01:46;99483.06;;;24.62;100.00
10638;BME280;47007;49.252;8.904;2022-08-19T09:04:13;99427.50;;;24.31;100.00
10638;BME280;47007;49.252;8.904;2022-08-19T09:07:00;99468.94;;;24.65;100.00
10638;BME280;47007;49.252;8.904;2022-08-19T09:09:50;99480.38;;;24.96;100.00
10638;BME280;47007;49.252;8.904;2022-08-19T09:15:40;99461.72;;;25.14;100.00
10638;BME280;47007;49.252;8.904;2022-08-19T09:18:10;99480.19;;;25.12;100.00
10638;BME280;47007;49.252;8.904;2022-08-19T09:20:44;99481.03;;;25.84;100.00
10638;BME280;47007;49.252;8.904;2022-08-19T09:23:13;99478.47;;;26.48;100.00
10638;BME280;47007;49.252;8.904;2022-08-19T09:25:39;99461.34;;;27.13;100.00
10638;BME280;47007;49.252;8.904;2022-08-19T09:28:07;99475.09;;;27.63;97.84
10638;BME280;47007;49.252;8.904;2022-08-19T09:30:48;99466.31;;;28.29;94.78
10638;BME280;47007;49.252;8.904;2022-08-19T09:33:18;99454.97;;;28.36;89.19
10638;BME280;47007;49.252;8.904;2022-08-19T09:35:46;99460.66;;;28.48;91.24
10638;BME280;47007;49.252;8.904;2022-08-19T09:38:20;99452.47;;;28.70;84.69
10638;BME280;47007;49.252;8.904;2022-08-19T09:40:47;99445.81;;;28.54;85.62
10638;BME280;47007;49.252;8.904;2022-08-19T09:43:14;99448.03;;;28.30;86.70
10638;BME280;47007;49.252;8.904;2022-08-19T09:45:59;99431.72;;;28.60;82.87
10638;BME280;47007;49.252;8.904;2022-08-19T09:48:26;99436.41;;;28.91;82.37
10638;BME280;47007;49.252;8.904;2022-08-19T09:50:53;99431.69;;;29.14;78.01
10638;BME280;47007;49.252;8.904;2022-08-19T09:53:20;99442.38;;;28.93;77.50
10638;BME280;47007;49.252;8.904;2022-08-19T09:55:51;99435.03;;;29.42;76.96
10638;BME280;47007;49.252;8.904;2022-08-19T09:58:18;99453.34;;;30.15;72.26
10638;BME280;47007;49.252;8.904;2022-08-19T10:00:51;99442.84;;;30.43;67.74
10638;BME280;47007;49.252;8.904;2022-08-19T10:03:19;99436.44;;;30.05;69.63
10638;BME280;47007;49.252;8.904;2022-08-19T10:05:45;99443.50;;;29.88;70.28
10638;BME280;47007;49.252;8.904;2022-08-19T10:08:17;99436.09;;;29.89;66.82
10638;BME280;47007;49.252;8.904;2022-08-19T10:10:48;99419.88;;;29.36;67.86
10638;BME280;47007;49.252;8.904;2022-08-19T10:13:17;99415.56;;;28.42;73.13
10638;BME280;47007;49.252;8.904;2022-08-19T10:15:45;99444.59;;;28.46;75.58
10638;BME280;47007;49.252;8.904;2022-08-19T10:18:15;99435.50;;;28.51;75.25
10638;BME280;47007;49.252;8.904;2022-08-19T10:20:46;99440.69;;;28.83;74.75
10638;BME280;47007;49.252;8.904;2022-08-19T10:23:19;99432.94;;;29.08;72.71
10638;BME280;47007;49.252;8.904;2022-08-19T10:25:47;99435.47;;;29.35;72.08
10638;BME280;47007;49.252;8.904;2022-08-19T10:28:14;99413.41;;;28.83;71.81
10638;BME280;47007;49.252;8.904;2022-08-19T10:30:41;99425.03;;;28.08;76.16
10638;BME280;47007;49.252;8.904;2022-08-19T10:33:08;99410.50;;;27.91;78.31
10638;BME280;47007;49.252;8.904;2022-08-19T10:35:37;99428.97;;;27.80;78.98
10638;BME280;47007;49.252;8.904;2022-08-19T10:38:23;99427.78;;;27.72;80.56
10638;BME280;47007;49.252;8.904;2022-08-19T10:40:58;99427.19;;;27.62;80.95
10638;BME280;47007;49.252;8.904;2022-08-19T10:43:24;99417.03;;;27.89;80.62
10638;BME280;47007;49.252;8.904;2022-08-19T10:46:12;99406.47;;;28.10;78.99
10638;BME280;47007;49.252;8.904;2022-08-19T10:48:43;99408.56;;;28.49;76.41
10638;BME280;47007;49.252;8.904;2022-08-19T10:51:11;99419.63;;;28.75;75.34
10638;BME280;47007;49.252;8.904;2022-08-19T10:53:57;99399.94;;;28.78;74.55
10638;BME280;47007;49.252;8.904;2022-08-19T10:56:25;99389.06;;;28.65;74.12
10638;BME280;47007;49.252;8.904;2022-08-19T10:59:11;99389.31;;;28.10;75.44
10638;BME280;47007;49.252;8.904;2022-08-19T11:01:42;99400.31;;;27.82;76.29
10638;BME280;47007;49.252;8.904;2022-08-19T11:04:09;99380.94;;;27.84;76.82
10638;BME280;47007;49.252;8.904;2022-08-19T11:06:37;99383.22;;;28.27;75.23
10638;BME280;47007;49.252;8.904;2022-08-19T11:09:05;99373.41;;;28.03;74.10
10638;BME280;47007;49.252;8.904;2022-08-19T11:11:32;99360.31;;;28.58;71.10
10638;BME280;47007;49.252;8.904;2022-08-19T11:14:03;99372.22;;;28.63;68.96
10638;BME280;47007;49.252;8.904;2022-08-19T11:16:30;99379.94;;;28.38;68.10
10638;BME280;47007;49.252;8.904;2022-08-19T11:19:17;99374.56;;;28.24;69.59
10638;BME280;47007;49.252;8.904;2022-08-19T11:21:48;99371.97;;;29.12;63.13
10638;BME280;47007;49.252;8.904;2022-08-19T11:24:24;99371.47;;;29.93;59.81
10638;BME280;47007;49.252;8.904;2022-08-19T11:26:53;99363.91;;;29.81;57.15
10638;BME280;47007;49.252;8.904;2022-08-19T11:29:24;99367.28;;;29.70;58.77
10638;BME280;47007;49.252;8.904;2022-08-19T11:31:52;99356.31;;;30.47;56.44
10638;BME280;47007;49.252;8.904;2022-08-19T11:34:21;99342.22;;;30.83;54.62
10638;BME280;47007;49.252;8.904;2022-08-19T11:36:50;99374.44;;;30.69;53.79
10638;BME280;47007;49.252;8.904;2022-08-19T11:39:20;99365.00;;;31.34;54.93
10638;BME280;47007;49.252;8.904;2022-08-19T11:41:48;99357.34;;;31.48;52.46
10638;BME280;47007;49.252;8.904;2022-08-19T11:44:15;99347.50;;;31.47;52.08
10638;BME280;47007;49.252;8.904;2022-08-19T11:46:43;99358.13;;;31.49;50.86
10638;BME280;47007;49.252;8.904;2022-08-19T11:49:14;99339.81;;;31.40;52.58
10638;BME280;47007;49.252;8.904;2022-08-19T11:51:42;99344.34;;;31.07;52.45
10638;BME280;47007;49.252;8.904;2022-08-19T11:54:14;99336.19;;;30.52;51.65
10638;BME280;47007;49.252;8.904;2022-08-19T11:56:41;99368.75;;;29.76;52.51
10638;BME280;47007;49.252;8.904;2022-08-19T11:59:11;99372.44;;;29.62;52.99
10638;BME280;47007;49.252;8.904;2022-08-19T12:01:43;99366.19;;;29.05;53.98
10638;BME280;47007;49.252;8.904;2022-08-19T12:04:10;99361.97;;;28.99;55.54
10638;BME280;47007;49.252;8.904;2022-08-19T12:06:39;99376.69;;;29.29;54.94
10638;BME280;47007;49.252;8.904;2022-08-19T12:09:07;99380.19;;;29.21;54.50
10638;BME280;47007;49.252;8.904;2022-08-19T12:11:38;99376.75;;;29.07;54.81
10638;BME280;47007;49.252;8.904;2022-08-19T12:14:06;99374.88;;;29.16;54.29
10638;BME280;47007;49.252;8.904;2022-08-19T12:16:40;99386.44;;;29.13;54.01
10638;BME280;47007;49.252;8.904;2022-08-19T12:19:18;99364.41;;;29.09;54.34
10638;BME280;47007;49.252;8.904;2022-08-19T12:21:48;99361.81;;;29.52;53.04
10638;BME280;47007;49.252;8.904;2022-08-19T12:24:15;99362.66;;;29.79;52.23
10638;BME280;47007;49.252;8.904;2022-08-19T12:26:46;99351.31;;;29.37;52.93
10638;BME280;47007;49.252;8.904;2022-08-19T12:29:20;99350.66;;;29.31;53.18
10638;BME280;47007;49.252;8.904;2022-08-19T12:31:50;99368.06;;;29.44;51.65
10638;BME280;47007;49.252;8.904;2022-08-19T12:34:16;99367.81;;;29.23;50.72
10638;BME280;47007;49.252;8.904;2022-08-19T12:36:43;99372.91;;;29.08;50.81
10638;BME280;47007;49.252;8.904;2022-08-19T12:39:10;99364.09;;;29.11;52.00
10638;BME280;47007;49.252;8.904;2022-08-19T12:41:39;99368.63;;;29.15;52.09
10638;BME280;47007;49.252;8.904;2022-08-19T12:44:17;99364.31;;;29.31;52.56
10638;BME280;47007;49.252;8.904;2022-08-19T12:46:46;99370.50;;;29.72;52.46
10638;BME280;47007;49.252;8.904;2022-08-19T12:49:19;99367.97;;;30.01;51.35
10638;BME280;47007;49.252;8.904;2022-08-19T12:52:07;99366.63;;;29.81;50.74
10638;BME280;47007;49.252;8.904;2022-08-19T12:54:35;99372.25;;;29.93;50.93
10638;BME280;47007;49.252;8.904;2022-08-19T12:57:07;99374.53;;;29.91;50.28
10638;BME280;47007;49.252;8.904;2022-08-19T12:59:35;99362.78;;;29.65;49.28
10638;BME280;47007;49.252;8.904;2022-08-19T13:02:04;99385.66;;;30.12;47.86
10638;BME280;47007;49.252;8.904;2022-08-19T13:04:33;99380.97;;;30.21;47.04
10638;BME280;47007;49.252;8.904;2022-08-19T13:07:03;99347.66;;;29.93;47.34
10638;BME280;47007;49.252;8.904;2022-08-19T13:09:30;99360.66;;;30.48;47.39
10638;BME280;47007;49.252;8.904;2022-08-19T13:11:56;99366.56;;;30.76;47.30
10638;BME280;47007;49.252;8.904;2022-08-19T13:14:23;99347.88;;;30.69;47.59
10638;BME280;47007;49.252;8.904;2022-08-19T13:16:52;99355.66;;;30.42;48.12
10638;BME280;47007;49.252;8.904;2022-08-19T13:19:19;99346.19;;;30.30;48.22